createdAt,value
2022-08-05T00:00:17.088Z,3.63
2022-08-05T00:02:51.393Z,3.72
2022-08-05T00:06:02.764Z,3.58
2022-08-05T00:08:34.054Z,4.18
2022-08-05T00:11:00.923Z,3.83
2022-08-05T00:13:39.273Z,3.83
2022-08-05T00:16:08.897Z,3.70
2022-08-05T00:18:38.029Z,3.90
2022-08-05T00:21:06.969Z,3.60
2022-08-05T00:23:46.251Z,3.90
2022-08-05T00:26:22.162Z,4.13
2022-08-05T00:28:50.700Z,4.30
2022-08-05T00:31:54.148Z,4.00
2022-08-05T00:34:55.132Z,4.05
2022-08-05T00:37:12.635Z,4.20
2022-08-05T00:39:57.884Z,4.13
2022-08-05T00:42:33.627Z,4.40
2022-08-05T00:45:02.009Z,4.53
2022-08-05T00:47:53.091Z,4.50
2022-08-05T00:50:20.899Z,4.30
2022-08-05T00:52:49.528Z,4.32
2022-08-05T00:55:23.124Z,4.40
2022-08-05T00:58:02.818Z,4.68
2022-08-05T01:00:33.327Z,4.68
2022-08-05T01:03:02.221Z,4.55
2022-08-05T01:05:36.777Z,5.20
2022-08-05T01:08:43.310Z,5.57
2022-08-05T01:10:56.541Z,5.88
2022-08-05T01:13:58.346Z,5.97
2022-08-05T01:16:26.060Z,5.63
2022-08-05T01:18:59.135Z,6.10
2022-08-05T01:21:44.074Z,6.63
2022-08-05T01:24:25.627Z,5.95
2022-08-05T01:27:02.619Z,5.97
2022-08-05T01:29:50.645Z,6.55
2022-08-05T01:32:22.404Z,5.72
2022-08-05T01:34:52.825Z,6.72
2022-08-05T01:37:25.172Z,6.57
2022-08-05T01:39:59.215Z,6.63
2022-08-05T01:42:28.975Z,6.38
2022-08-05T01:45:02.263Z,6.20
2022-08-05T01:47:39.343Z,6.32
2022-08-05T01:50:15.268Z,6.30
2022-08-05T01:52:49.873Z,6.47
2022-08-05T01:55:19.460Z,6.18
2022-08-05T01:58:10.295Z,6.10
2022-08-05T02:00:40.692Z,6.15
2022-08-05T02:03:24.223Z,6.10
2022-08-05T02:06:00.983Z,5.80
2022-08-05T02:08:31.781Z,6.28
2022-08-05T02:11:04.425Z,6.43
2022-08-05T02:13:53.474Z,6.55
2022-08-05T02:16:24.903Z,6.40
2022-08-05T02:18:57.966Z,6.97
2022-08-05T02:21:28.189Z,6.53
2022-08-05T02:24:01.174Z,6.05
2022-08-05T02:26:35.344Z,6.50
2022-08-05T02:29:04.004Z,6.07
2022-08-05T02:31:35.279Z,6.47
2022-08-05T02:34:05.841Z,6.22
2022-08-05T02:36:38.260Z,6.38
2022-08-05T02:39:08.613Z,6.05
2022-08-05T02:41:57.648Z,6.63
2022-08-05T02:44:27.489Z,5.78
2022-08-05T02:47:00.235Z,5.88
2022-08-05T02:49:35.735Z,6.43
2022-08-05T02:52:06.237Z,6.50
2022-08-05T02:54:37.213Z,6.50
2022-08-05T02:57:10.346Z,6.57
2022-08-05T02:59:55.473Z,6.55
2022-08-05T03:02:27.790Z,6.72
2022-08-05T03:04:56.336Z,6.47
2022-08-05T03:08:01.372Z,6.10
2022-08-05T03:10:24.594Z,6.88
2022-08-05T03:12:54.022Z,5.80
2022-08-05T03:15:23.694Z,6.72
2022-08-05T03:17:54.261Z,6.68
2022-08-05T03:20:24.834Z,6.70
2022-08-05T03:22:57.294Z,6.30
2022-08-05T03:25:33.938Z,6.78
2022-08-05T03:28:14.844Z,6.10
2022-08-05T03:30:48.100Z,6.72
2022-08-05T03:33:18.127Z,6.88
2022-08-05T03:35:46.944Z,7.38
2022-08-05T03:38:15.708Z,6.78
2022-08-05T03:40:45.114Z,6.03
2022-08-05T03:44:09.571Z,6.20
2022-08-05T03:46:04.857Z,6.13
2022-08-05T03:48:35.208Z,5.93
2022-08-05T03:52:39.199Z,5.93
2022-08-05T03:55:52.303Z,5.47
2022-08-05T03:56:49.909Z,6.10
2022-08-05T03:59:20.361Z,6.95
2022-08-05T04:01:51.228Z,6.60
2022-08-05T04:04:22.304Z,6.80
2022-08-05T04:06:55.130Z,6.65
2022-08-05T04:09:25.936Z,7.60
2022-08-05T04:11:56.538Z,8.05
2022-08-05T04:14:30.233Z,7.85
2022-08-05T04:16:59.632Z,7.50
2022-08-05T04:19:29.481Z,7.83
2022-08-05T04:22:08.528Z,8.47
2022-08-05T04:24:43.824Z,8.23
2022-08-05T04:27:12.936Z,7.73
2022-08-05T04:29:41.670Z,8.17
2022-08-05T04:32:11.113Z,8.40
2022-08-05T04:34:42.952Z,7.97
2022-08-05T04:37:11.856Z,7.88
2022-08-05T04:39:41.110Z,8.02
2022-08-05T04:42:09.977Z,7.70
2022-08-05T04:44:39.250Z,7.77
2022-08-05T04:47:09.572Z,7.43
2022-08-05T04:50:02.885Z,8.63
2022-08-05T04:52:28.753Z,7.00
2022-08-05T04:54:57.962Z,7.88
2022-08-05T04:57:37.272Z,7.50
2022-08-05T05:00:06.107Z,7.65
2022-08-05T05:02:41.716Z,7.73
2022-08-05T05:05:17.016Z,6.82
2022-08-05T05:08:01.620Z,7.53
2022-08-05T05:10:30.705Z,7.68
2022-08-05T05:13:04.070Z,6.80
2022-08-05T05:15:56.481Z,6.90
2022-08-05T05:18:28.355Z,6.15
2022-08-05T05:20:59.603Z,7.75
2022-08-05T05:24:01.824Z,7.35
2022-08-05T05:26:18.273Z,6.78
2022-08-05T05:28:46.549Z,6.80
2022-08-05T05:31:15.113Z,6.72
2022-08-05T05:34:01.720Z,7.45
2022-08-05T05:36:30.945Z,7.10
2022-08-05T05:39:03.843Z,6.93
2022-08-05T05:41:40.915Z,6.75
2022-08-05T05:44:35.963Z,7.13
2022-08-05T05:47:04.335Z,6.38
2022-08-05T05:49:36.072Z,6.72
2022-08-05T05:52:07.272Z,6.72
2022-08-05T05:54:50.456Z,7.00
2022-08-05T05:57:19.944Z,6.53
2022-08-05T05:59:49.155Z,6.60
2022-08-05T06:02:36.856Z,6.28
2022-08-05T06:05:10.642Z,6.35
2022-08-05T06:07:57.962Z,6.15
2022-08-05T06:10:36.256Z,5.93
2022-08-05T06:13:05.890Z,5.35
2022-08-05T06:16:30.902Z,6.38
2022-08-05T06:18:31.009Z,6.68
2022-08-05T06:21:00.069Z,6.68
2022-08-05T06:23:43.726Z,7.30
2022-08-05T06:26:21.572Z,5.73
2022-08-05T06:28:52.445Z,6.60
2022-08-05T06:31:22.091Z,6.15
2022-08-05T06:34:06.201Z,6.10
2022-08-05T06:36:53.424Z,5.90
2022-08-05T06:39:27.160Z,6.10
2022-08-05T06:41:58.922Z,11.60
2022-08-05T06:44:28.168Z,7.03
2022-08-05T06:46:56.850Z,5.82
2022-08-05T06:50:01.582Z,5.80
2022-08-05T06:52:36.863Z,5.30
2022-08-05T06:55:02.432Z,6.43
2022-08-05T06:57:57.227Z,5.53
2022-08-05T07:00:22.140Z,4.90
2022-08-05T07:02:54.110Z,4.73
2022-08-05T07:05:27.569Z,5.57
2022-08-05T07:08:06.265Z,5.20
2022-08-05T07:10:39.168Z,5.33
2022-08-05T07:13:57.932Z,4.10
2022-08-05T07:18:02.050Z,4.87
2022-08-05T07:22:29.048Z,4.20
2022-08-05T07:24:59.537Z,4.10
2022-08-05T07:27:58.374Z,4.40
2022-08-05T07:30:33.770Z,3.90
2022-08-05T07:33:05.058Z,4.00
2022-08-05T07:36:02.810Z,3.90
2022-08-05T07:38:32.942Z,4.33
2022-08-05T07:42:08.709Z,3.80
2022-08-05T07:43:52.623Z,3.97
2022-08-05T07:46:26.033Z,4.00
2022-08-05T07:49:02.100Z,4.23
2022-08-05T07:51:36.204Z,4.00
2022-08-05T07:54:06.220Z,4.37
2022-08-05T07:57:00.004Z,5.00
2022-08-05T07:59:38.580Z,4.57
2022-08-05T08:02:15.809Z,4.60
2022-08-05T08:04:45.761Z,4.70
2022-08-05T08:07:15.022Z,4.37
2022-08-05T08:09:43.716Z,4.33
2022-08-05T08:12:35.639Z,4.50
2022-08-05T08:15:02.280Z,4.40
2022-08-05T08:17:35.331Z,4.50
2022-08-05T08:20:43.058Z,5.07
2022-08-05T08:22:55.774Z,5.20
2022-08-05T08:25:26.971Z,4.50
2022-08-05T08:28:18.189Z,4.33
2022-08-05T08:30:49.863Z,4.43
2022-08-05T08:33:19.916Z,5.03
2022-08-05T08:35:53.896Z,4.50
2022-08-05T08:38:37.741Z,8.53
2022-08-05T08:41:08.433Z,4.10
2022-08-05T08:45:23.067Z,4.17
2022-08-05T08:46:29.139Z,4.90
2022-08-05T08:49:09.554Z,3.70
2022-08-05T08:52:05.770Z,4.00
2022-08-05T08:54:38.095Z,4.10
2022-08-05T08:57:13.456Z,4.23
2022-08-05T08:59:47.253Z,4.00
2022-08-05T09:02:18.959Z,4.33
2022-08-05T09:05:16.440Z,3.97
2022-08-05T09:07:40.095Z,3.40
2022-08-05T09:10:27.697Z,3.70
2022-08-05T09:12:59.878Z,5.25
2022-08-05T09:15:37.004Z,3.88
2022-08-05T09:18:07.641Z,3.50
2022-08-05T09:20:38.706Z,3.60
2022-08-05T09:23:18.766Z,3.78
2022-08-05T09:26:01.374Z,3.78
2022-08-05T09:28:33.196Z,3.87
2022-08-05T09:31:22.440Z,3.92
2022-08-05T09:33:56.204Z,3.77
2022-08-05T09:36:27.803Z,3.20
2022-08-05T09:39:02.897Z,5.30
2022-08-05T09:41:33.180Z,3.78
2022-08-05T09:44:06.783Z,3.42
2022-08-05T09:46:35.689Z,3.00
2022-08-05T09:49:19.365Z,3.00
2022-08-05T09:51:50.400Z,3.33
2022-08-05T09:54:29.002Z,3.38
2022-08-05T09:57:01.534Z,2.75
2022-08-05T09:59:35.187Z,2.83
2022-08-05T10:02:06.598Z,2.50
2022-08-05T10:04:38.642Z,2.58
2022-08-05T10:07:20.922Z,2.92
2022-08-05T10:10:13.909Z,3.15
2022-08-05T10:12:50.095Z,2.90
2022-08-05T10:15:23.184Z,2.65
2022-08-05T10:18:09.563Z,2.70
2022-08-05T10:20:39.205Z,2.78
2022-08-05T10:23:34.473Z,3.03
2022-08-05T10:26:00.878Z,2.78
2022-08-05T10:28:30.633Z,2.33
2022-08-05T10:32:59.520Z,2.75
2022-08-05T10:33:52.336Z,2.53
2022-08-05T10:36:23.443Z,2.80
2022-08-05T10:38:57.279Z,3.13
2022-08-05T10:41:46.908Z,2.00
2022-08-05T10:44:18.701Z,2.50
2022-08-05T10:46:50.865Z,2.13
2022-08-05T10:49:26.651Z,2.22
2022-08-05T10:52:00.720Z,2.15
2022-08-05T10:55:04.995Z,2.95
2022-08-05T10:57:34.946Z,2.97
2022-08-05T11:00:14.764Z,3.08
2022-08-05T11:03:23.424Z,2.75
2022-08-05T11:06:15.493Z,2.78
2022-08-05T11:08:59.683Z,3.17
2022-08-05T11:11:44.356Z,3.15
2022-08-05T11:17:59.485Z,3.08
2022-08-05T11:20:43.878Z,3.28
2022-08-05T11:23:33.745Z,3.60
2022-08-05T11:26:29.287Z,3.95
2022-08-05T11:29:06.632Z,3.10
2022-08-05T11:31:58.503Z,3.47
2022-08-05T11:34:38.896Z,3.53
2022-08-05T11:38:30.350Z,3.13
2022-08-05T11:40:03.280Z,3.60
2022-08-05T11:42:37.934Z,3.70
2022-08-05T11:45:14.200Z,3.97
2022-08-05T11:47:55.328Z,3.45
2022-08-05T11:50:23.769Z,3.33
2022-08-05T11:52:57.600Z,3.80
2022-08-05T11:55:32.100Z,3.67
2022-08-05T11:58:10.088Z,4.22
2022-08-05T12:00:44.449Z,3.67
2022-08-05T12:03:28.586Z,3.72
2022-08-05T12:06:05.817Z,4.43
2022-08-05T12:08:35.136Z,3.97
2022-08-05T12:11:09.874Z,3.40
2022-08-05T12:13:55.148Z,3.88
2022-08-05T12:16:29.750Z,3.88
2022-08-05T12:18:58.002Z,4.10
2022-08-05T12:21:30.136Z,4.00
2022-08-05T12:24:04.578Z,4.40
2022-08-05T12:26:34.319Z,4.00
2022-08-05T12:29:03.261Z,3.78
2022-08-05T12:31:46.126Z,3.92
2022-08-05T12:34:20.394Z,3.60
2022-08-05T12:36:53.281Z,4.03
2022-08-05T12:39:22.019Z,3.85
2022-08-05T12:41:58.123Z,3.03
2022-08-05T12:44:33.503Z,2.22
2022-08-05T12:47:04.418Z,1.70
2022-08-05T12:50:03.389Z,1.90
2022-08-05T12:52:38.848Z,1.73
2022-08-05T12:55:22.494Z,1.30
2022-08-05T12:58:38.748Z,1.60
2022-08-05T13:02:04.166Z,1.60
2022-08-05T13:03:33.388Z,1.42
2022-08-05T13:06:01.879Z,1.40
2022-08-05T13:08:32.205Z,1.70
2022-08-05T13:11:01.863Z,1.33
2022-08-05T13:14:05.169Z,1.40
2022-08-05T13:16:19.488Z,1.13
2022-08-05T13:18:55.091Z,1.30
2022-08-05T13:21:28.570Z,1.00
2022-08-05T13:24:08.768Z,1.30
2022-08-05T13:26:37.404Z,1.15
2022-08-05T13:29:05.812Z,0.82
2022-08-05T13:32:04.441Z,1.25
2022-08-05T13:34:26.266Z,1.55
2022-08-05T13:36:55.195Z,1.20
2022-08-05T13:40:13.877Z,0.68
2022-08-05T13:42:14.425Z,0.70
2022-08-05T13:44:45.894Z,0.70
2022-08-05T13:47:35.281Z,0.68
2022-08-05T13:50:06.775Z,0.82
2022-08-05T13:52:39.800Z,0.82
2022-08-05T13:55:10.056Z,0.70
2022-08-05T13:57:48.691Z,1.02
2022-08-05T14:00:27.177Z,0.77
2022-08-05T14:02:56.433Z,0.90
2022-08-05T14:05:29.546Z,1.27
2022-08-05T14:08:21.017Z,0.90
2022-08-05T14:10:59.756Z,0.85
2022-08-05T14:13:47.994Z,0.90
2022-08-05T14:16:17.268Z,1.02
2022-08-05T14:18:47.821Z,0.88
2022-08-05T14:22:09.658Z,1.00
2022-08-05T14:24:10.991Z,1.00
2022-08-05T14:26:51.448Z,0.68
2022-08-05T14:29:27.886Z,1.10
2022-08-05T14:32:12.940Z,0.50
2022-08-05T14:34:45.864Z,0.68
2022-08-05T14:37:17.155Z,0.45
2022-08-05T14:39:50.087Z,0.70
2022-08-05T14:42:25.492Z,0.80
2022-08-05T14:44:54.383Z,1.20
2022-08-05T14:48:04.772Z,3.00
2022-08-05T14:50:17.709Z,1.05
2022-08-05T14:52:56.942Z,0.40
2022-08-05T14:55:38.415Z,0.63
2022-08-05T14:58:10.841Z,0.77
2022-08-05T15:00:57.975Z,0.65
2022-08-05T15:03:27.492Z,0.52
2022-08-05T15:06:06.957Z,0.50
2022-08-05T15:09:01.384Z,0.50
2022-08-05T15:11:51.323Z,1.13
2022-08-05T15:14:33.173Z,0.63
2022-08-05T15:17:04.810Z,1.33
2022-08-05T15:19:33.298Z,0.73
2022-08-05T15:22:01.794Z,0.73
2022-08-05T15:24:31.812Z,0.50
2022-08-05T15:27:00.086Z,0.90
2022-08-05T15:29:30.229Z,0.70
2022-08-05T15:32:03.032Z,1.20
2022-08-05T15:34:33.780Z,0.80
2022-08-05T15:37:06.952Z,0.85
2022-08-05T15:41:01.188Z,0.88
2022-08-05T15:42:57.688Z,0.80
2022-08-05T15:45:38.886Z,0.65
2022-08-05T15:48:07.712Z,0.55
2022-08-05T15:50:36.313Z,0.57
2022-08-05T15:53:06.710Z,0.80
2022-08-05T15:56:03.203Z,1.00
2022-08-05T15:58:28.548Z,0.68
2022-08-05T16:01:04.518Z,0.68
2022-08-05T16:03:44.393Z,1.02
2022-08-05T16:06:20.231Z,0.73
2022-08-05T16:08:51.162Z,0.70
2022-08-05T16:11:43.136Z,1.00
2022-08-05T16:14:17.404Z,0.95
2022-08-05T16:16:46.143Z,0.70
2022-08-05T16:19:18.941Z,0.90
2022-08-05T16:22:00.020Z,0.38
2022-08-05T16:24:41.177Z,0.75
2022-08-05T16:27:32.338Z,0.45
2022-08-05T16:30:25.667Z,0.68
2022-08-05T16:32:55.217Z,1.00
2022-08-05T16:35:27.911Z,0.70
2022-08-05T16:38:02.620Z,0.77
2022-08-05T16:40:47.744Z,0.60
2022-08-05T16:43:23.727Z,0.90
2022-08-05T16:46:04.730Z,0.77
2022-08-05T16:48:39.125Z,0.50
2022-08-05T16:51:09.894Z,0.68
2022-08-05T16:54:03.262Z,0.85
2022-08-05T16:56:27.939Z,0.85
2022-08-05T16:58:57.809Z,0.80
2022-08-05T17:01:26.287Z,0.65
2022-08-05T17:03:54.652Z,0.60
2022-08-05T17:06:24.772Z,0.60
2022-08-05T17:08:54.344Z,0.90
2022-08-05T17:11:25.407Z,0.70
2022-08-05T17:14:00.449Z,0.60
2022-08-05T17:16:37.078Z,0.70
2022-08-05T17:19:07.601Z,0.90
2022-08-05T17:21:39.566Z,0.60
2022-08-05T17:24:19.487Z,0.70
2022-08-05T17:26:58.223Z,0.90
2022-08-05T17:29:33.771Z,0.60
2022-08-05T17:32:11.230Z,0.70
2022-08-05T17:34:47.546Z,0.90
2022-08-05T17:37:39.567Z,0.47
2022-08-05T17:40:10.259Z,0.75
2022-08-05T17:42:41.645Z,0.55
2022-08-05T17:45:20.577Z,0.73
2022-08-05T17:47:56.102Z,0.85
2022-08-05T17:50:28.061Z,1.08
2022-08-05T17:52:58.874Z,0.77
2022-08-05T17:55:34.517Z,1.23
2022-08-05T17:58:09.917Z,0.77
2022-08-05T18:00:44.317Z,0.90
2022-08-05T18:03:28.009Z,1.02
2022-08-05T18:06:11.164Z,0.60
2022-08-05T18:08:44.470Z,0.80
2022-08-05T18:11:24.779Z,0.90
2022-08-05T18:14:03.390Z,0.95
2022-08-05T18:16:32.414Z,1.20
2022-08-05T18:19:02.117Z,0.90
2022-08-05T18:22:07.120Z,0.90
2022-08-05T18:24:18.742Z,0.80
2022-08-05T18:26:49.354Z,0.82
2022-08-05T18:29:17.714Z,0.98
2022-08-05T18:32:06.349Z,1.17
2022-08-05T18:34:40.698Z,0.93
2022-08-05T18:37:12.339Z,0.93
2022-08-05T18:40:31.742Z,0.93
2022-08-05T18:42:29.618Z,0.82
2022-08-05T18:44:57.996Z,0.73
2022-08-05T18:47:28.515Z,0.75
2022-08-05T18:50:18.715Z,1.17
2022-08-05T18:52:51.093Z,0.70
2022-08-05T18:55:21.456Z,0.68
2022-08-05T18:57:54.040Z,0.93
2022-08-05T19:00:31.477Z,1.00
2022-08-05T19:03:04.457Z,0.80
2022-08-05T19:06:11.320Z,1.05
2022-08-05T19:08:30.491Z,2.80
2022-08-05T19:10:59.768Z,1.08
2022-08-05T19:13:35.869Z,1.40
2022-08-05T19:16:05.720Z,0.65
2022-08-05T19:18:53.990Z,1.00
2022-08-05T19:21:27.458Z,0.95
2022-08-05T19:24:06.053Z,0.90
2022-08-05T19:26:36.890Z,0.90
2022-08-05T19:29:22.733Z,0.70
2022-08-05T19:31:51.413Z,0.80
2022-08-05T19:34:19.830Z,0.80
2022-08-05T19:36:51.910Z,0.80
2022-08-05T19:39:20.335Z,0.50
2022-08-05T19:42:06.162Z,3.05
2022-08-05T19:44:45.280Z,0.70
2022-08-05T19:47:16.429Z,0.70
2022-08-05T19:49:45.241Z,0.70
2022-08-05T19:52:40.405Z,0.82
2022-08-05T19:55:06.605Z,1.20
2022-08-05T19:57:49.082Z,1.08
2022-08-05T20:00:24.360Z,0.70
2022-08-05T20:02:53.073Z,0.80
2022-08-05T20:05:24.712Z,0.80
2022-08-05T20:07:58.985Z,0.90
2022-08-05T20:10:27.715Z,0.60
2022-08-05T20:12:57.363Z,0.63
2022-08-05T20:15:52.134Z,0.50
2022-08-05T20:18:32.781Z,1.02
2022-08-05T20:21:04.796Z,1.00
2022-08-05T20:23:39.726Z,0.85
2022-08-05T20:26:20.637Z,0.90
2022-08-05T20:28:50.867Z,0.88
2022-08-05T20:31:21.593Z,0.90
2022-08-05T20:33:51.449Z,0.90
2022-08-05T20:36:21.855Z,0.60
2022-08-05T20:38:54.265Z,0.68
2022-08-05T20:41:26.905Z,0.93
2022-08-05T20:43:58.666Z,0.70
2022-08-05T20:46:30.121Z,0.80
2022-08-05T20:48:58.560Z,0.70
2022-08-05T20:51:27.153Z,0.90
2022-08-05T20:53:57.510Z,1.00
2022-08-05T20:56:34.159Z,0.68
2022-08-05T20:59:19.313Z,1.15
2022-08-05T21:01:57.970Z,1.20
2022-08-05T21:04:27.290Z,1.00
2022-08-05T21:06:55.922Z,0.90
2022-08-05T21:09:25.696Z,1.20
2022-08-05T21:12:10.798Z,1.17
2022-08-05T21:14:40.326Z,1.25
2022-08-05T21:17:08.642Z,0.98
2022-08-05T21:19:46.410Z,0.95
2022-08-05T21:22:17.598Z,1.00
2022-08-05T21:24:51.424Z,0.87
2022-08-05T21:27:25.455Z,0.90
2022-08-05T21:29:56.303Z,1.03
2022-08-05T21:32:26.897Z,1.30
2022-08-05T21:35:18.406Z,1.13
2022-08-05T21:37:47.136Z,1.17
2022-08-05T21:40:23.859Z,1.13
2022-08-05T21:42:52.991Z,1.20
2022-08-05T21:45:51.805Z,1.07
2022-08-05T21:48:10.981Z,1.67
2022-08-05T21:50:41.987Z,1.03
2022-08-05T21:53:21.589Z,1.30
2022-08-05T21:56:04.848Z,1.20
2022-08-05T21:58:36.720Z,1.20
2022-08-05T22:01:11.040Z,1.37
2022-08-05T22:03:53.653Z,1.10
2022-08-05T22:06:35.393Z,1.10
2022-08-05T22:09:13.776Z,1.70
2022-08-05T22:11:46.722Z,1.17
2022-08-05T22:14:32.708Z,1.37
2022-08-05T22:17:04.852Z,1.57
2022-08-05T22:20:02.013Z,1.20
2022-08-05T22:22:27.399Z,1.00
2022-08-05T22:25:20.986Z,1.20
2022-08-05T22:28:08.112Z,1.27
2022-08-05T22:30:55.659Z,1.40
2022-08-05T22:33:58.407Z,1.27
2022-08-05T22:36:14.594Z,1.00
2022-08-05T22:38:43.535Z,1.00
2022-08-05T22:41:16.766Z,1.10
2022-08-05T22:44:06.767Z,1.23
2022-08-05T22:46:39.979Z,1.07
2022-08-05T22:49:12.506Z,1.27
2022-08-05T22:52:06.101Z,1.70
2022-08-05T22:54:36.982Z,2.00
2022-08-05T22:57:05.831Z,1.47
2022-08-05T22:59:43.640Z,1.47
2022-08-05T23:02:22.843Z,1.87
2022-08-05T23:04:57.575Z,2.27
2022-08-05T23:07:26.034Z,1.90
2022-08-05T23:10:01.584Z,2.10
2022-08-05T23:12:32.404Z,1.60
2022-08-05T23:15:03.961Z,1.83
2022-08-05T23:18:01.458Z,1.90
2022-08-05T23:20:26.206Z,1.73
2022-08-05T23:22:55.825Z,1.50
2022-08-05T23:25:51.551Z,1.50
2022-08-05T23:28:15.949Z,1.53
2022-08-05T23:30:53.426Z,1.33
2022-08-05T23:33:26.119Z,1.40
2022-08-05T23:36:13.465Z,1.50
2022-08-05T23:38:42.755Z,1.27
2022-08-05T23:41:11.536Z,1.40
2022-08-05T23:44:05.188Z,1.60
2022-08-05T23:46:29.783Z,1.57
2022-08-05T23:49:00.999Z,1.13
2022-08-05T23:51:52.403Z,1.67
2022-08-05T23:54:26.084Z,1.40
2022-08-05T23:56:55.607Z,1.43
